Illinois River (Oklahoma), Watts (07195500)

StateOklahomaLatestPoor (368 cfs)
RiverIllinois RiverRatingObservedEstimated
Updated2020-08-11 18:30 (57 minutes ago)Flood - The river is flooding. Obstacles can be treacherous or deadly. The river should be avoided at this stage for casual trips and definitely for the inexperienced. Trips should be attempted only with protective gear and equipment.Flood(none)2254
Discharge368 cfs (median: 190 cfs)High - The river is high and potentially dangerous, especially for the young and / or inexperienced. Normal stream obstacles are sometimes difficult to navigate. Extended distances can be attempted, but canoe travel may not be advisable.High(none)1122
Height2.96 feetGood - Conditions are ideal for a canoe or kayak. Boats typically will drag on fewer than one-quarter of riffles, if at all, and portages are unnecessary or rare. Normal float lengths can be attempted without a problem.Good(none)574
TrendRising (rising over 24 hours)Low - River is low but can still be floated. Some riffles are okay but most come with significant dragging and might need a portage. Float lengths should be reduced to accommodate low flow, dragging, and portages.Low(none)371
USGSExternal icon USGS Site (External icon Google Maps)Poor - River is too low to float comfortably. Most or all riffles will drag or must be portaged and some obstacles (such as slick shelf rock) cause undue problems. Avoid the river at this stage for casual paddling trips.Poor(none)178

Trending Data

Plot Image

Trips for Illinois River (Oklahoma), Watts (07195500)

DateStartEndDistanceConditionDischargeHeightFishingDetails

A total of 0 rows are displayed.

Condition Descriptions

Fishing Conditions

Fish Species

Notes

Classic Trip List

The classic River Trips application is still available for use. It is updated with the new system using a data retrofit. It is no longer maintained. The original River Trips application is no longer updated (as of 1 Dec 2016) but can be checked for errors or for the condition of the data before it was converted to the new system.

Gauge Data Table

ObservationHeightDischargeMaximum
Discharge
Minimum
Discharge
Mean
Discharge
P05P10P20P25P50
(Median)
P75P80P90P95
2020-08-11 18:30 2.96 368 2770 (2008) 33 (1956) 274 48 73 106 120 190 290 311 486 840
2020-08-11 17:30 2.94 361 2770 (2008) 33 (1956) 274 48 73 106 120 190 290 311 486 840
2020-08-11 16:30 2.94 361 2770 (2008) 33 (1956) 274 48 73 106 120 190 290 311 486 840
2020-08-11 15:30 2.94 361 2770 (2008) 33 (1956) 274 48 73 106 120 190 290 311 486 840
2020-08-11 14:30 2.95 364 2770 (2008) 33 (1956) 274 48 73 106 120 190 290 311 486 840
2020-08-11 13:30 2.93 357 2770 (2008) 33 (1956) 274 48 73 106 120 190 290 311 486 840
2020-08-11 12:30 2.87 337 2770 (2008) 33 (1956) 274 48 73 106 120 190 290 311 486 840
2020-08-11 11:30 2.87 337 2770 (2008) 33 (1956) 274 48 73 106 120 190 290 311 486 840
2020-08-11 10:30 2.87 337 2770 (2008) 33 (1956) 274 48 73 106 120 190 290 311 486 840
2020-08-11 09:30 2.86 333 2770 (2008) 33 (1956) 274 48 73 106 120 190 290 311 486 840
2020-08-11 08:30 2.87 337 2770 (2008) 33 (1956) 274 48 73 106 120 190 290 311 486 840
2020-08-11 07:30 2.87 337 2770 (2008) 33 (1956) 274 48 73 106 120 190 290 311 486 840
2020-08-11 06:30 2.87 337 2770 (2008) 33 (1956) 274 48 73 106 120 190 290 311 486 840
2020-08-11 05:30 2.88 340 2770 (2008) 33 (1956) 274 48 73 106 120 190 290 311 486 840
2020-08-11 04:30 2.88 340 2770 (2008) 33 (1956) 274 48 73 106 120 190 290 311 486 840
2020-08-11 03:30 2.88 340 2770 (2008) 33 (1956) 274 48 73 106 120 190 290 311 486 840
2020-08-11 02:30 2.88 340 2770 (2008) 33 (1956) 274 48 73 106 120 190 290 311 486 840
2020-08-11 01:30 2.88 340 2770 (2008) 33 (1956) 274 48 73 106 120 190 290 311 486 840
2020-08-11 00:30 2.89 343 2770 (2008) 33 (1956) 274 48 73 106 120 190 290 311 486 840
2020-08-10 23:30 2.89 343 2070 (2008) 28 (1956) 279 44 70 108 118 172 285 335 517 1250
2020-08-10 22:30 2.89 343 2070 (2008) 28 (1956) 279 44 70 108 118 172 285 335 517 1250
2020-08-10 21:30 2.90 347 2070 (2008) 28 (1956) 279 44 70 108 118 172 285 335 517 1250
2020-08-10 20:30 2.90 347 2070 (2008) 28 (1956) 279 44 70 108 118 172 285 335 517 1250
2020-08-10 19:30 2.90 347 2070 (2008) 28 (1956) 279 44 70 108 118 172 285 335 517 1250
2020-08-10 18:30 2.90 347 2070 (2008) 28 (1956) 279 44 70 108 118 172 285 335 517 1250
2020-08-10 17:30 2.91 350 2070 (2008) 28 (1956) 279 44 70 108 118 172 285 335 517 1250
2020-08-10 16:30 2.90 347 2070 (2008) 28 (1956) 279 44 70 108 118 172 285 335 517 1250
2020-08-10 15:30 2.91 350 2070 (2008) 28 (1956) 279 44 70 108 118 172 285 335 517 1250
2020-08-10 14:30 2.91 350 2070 (2008) 28 (1956) 279 44 70 108 118 172 285 335 517 1250
2020-08-10 13:30 2.91 350 2070 (2008) 28 (1956) 279 44 70 108 118 172 285 335 517 1250
2020-08-10 12:30 2.91 350 2070 (2008) 28 (1956) 279 44 70 108 118 172 285 335 517 1250
2020-08-10 11:30 2.91 350 2070 (2008) 28 (1956) 279 44 70 108 118 172 285 335 517 1250
2020-08-10 10:30 2.91 350 2070 (2008) 28 (1956) 279 44 70 108 118 172 285 335 517 1250
2020-08-10 09:30 2.92 354 2070 (2008) 28 (1956) 279 44 70 108 118 172 285 335 517 1250
2020-08-10 08:30 2.92 354 2070 (2008) 28 (1956) 279 44 70 108 118 172 285 335 517 1250
2020-08-10 07:30 2.92 354 2070 (2008) 28 (1956) 279 44 70 108 118 172 285 335 517 1250
2020-08-10 06:30 2.92 354 2070 (2008) 28 (1956) 279 44 70 108 118 172 285 335 517 1250
2020-08-10 05:30 2.93 357 2070 (2008) 28 (1956) 279 44 70 108 118 172 285 335 517 1250
2020-08-10 04:30 2.94 361 2070 (2008) 28 (1956) 279 44 70 108 118 172 285 335 517 1250
2020-08-10 03:30 2.94 361 2070 (2008) 28 (1956) 279 44 70 108 118 172 285 335 517 1250
2020-08-10 02:30 2.95 364 2070 (2008) 28 (1956) 279 44 70 108 118 172 285 335 517 1250
2020-08-10 01:30 2.96 368 2070 (2008) 28 (1956) 279 44 70 108 118 172 285 335 517 1250
2020-08-10 00:30 2.97 371 2070 (2008) 28 (1956) 279 44 70 108 118 172 285 335 517 1250
2020-08-09 23:30 2.97 371 4530 (2013) 31 (1956) 323 43 71 109 123 183 282 326 451 1130
2020-08-09 22:30 2.97 371 4530 (2013) 31 (1956) 323 43 71 109 123 183 282 326 451 1130
2020-08-09 21:30 2.98 375 4530 (2013) 31 (1956) 323 43 71 109 123 183 282 326 451 1130
2020-08-09 20:30 2.99 378 4530 (2013) 31 (1956) 323 43 71 109 123 183 282 326 451 1130
2020-08-09 19:30 2.99 378 4530 (2013) 31 (1956) 323 43 71 109 123 183 282 326 451 1130
2020-08-09 18:30 2.99 378 4530 (2013) 31 (1956) 323 43 71 109 123 183 282 326 451 1130
2020-08-09 17:30 3.00 382 4530 (2013) 31 (1956) 323 43 71 109 123 183 282 326 451 1130
2020-08-09 16:30 3.00 382 4530 (2013) 31 (1956) 323 43 71 109 123 183 282 326 451 1130
2020-08-09 15:30 3.00 382 4530 (2013) 31 (1956) 323 43 71 109 123 183 282 326 451 1130
2020-08-09 14:30 3.01 386 4530 (2013) 31 (1956) 323 43 71 109 123 183 282 326 451 1130
2020-08-09 13:30 3.01 386 4530 (2013) 31 (1956) 323 43 71 109 123 183 282 326 451 1130
2020-08-09 12:30 3.02 389 4530 (2013) 31 (1956) 323 43 71 109 123 183 282 326 451 1130
2020-08-09 11:30 3.02 389 4530 (2013) 31 (1956) 323 43 71 109 123 183 282 326 451 1130
2020-08-09 10:30 3.02 389 4530 (2013) 31 (1956) 323 43 71 109 123 183 282 326 451 1130
2020-08-09 09:30 3.03 393 4530 (2013) 31 (1956) 323 43 71 109 123 183 282 326 451 1130
2020-08-09 08:30 3.03 393 4530 (2013) 31 (1956) 323 43 71 109 123 183 282 326 451 1130
2020-08-09 07:30 3.04 397 4530 (2013) 31 (1956) 323 43 71 109 123 183 282 326 451 1130
2020-08-09 06:30 3.05 400 4530 (2013) 31 (1956) 323 43 71 109 123 183 282 326 451 1130
2020-08-09 05:30 3.06 404 4530 (2013) 31 (1956) 323 43 71 109 123 183 282 326 451 1130
2020-08-09 04:30 3.07 408 4530 (2013) 31 (1956) 323 43 71 109 123 183 282 326 451 1130
2020-08-09 03:30 3.08 411 4530 (2013) 31 (1956) 323 43 71 109 123 183 282 326 451 1130
2020-08-09 02:30 3.09 415 4530 (2013) 31 (1956) 323 43 71 109 123 183 282 326 451 1130
2020-08-09 01:30 3.10 419 4530 (2013) 31 (1956) 323 43 71 109 123 183 282 326 451 1130
2020-08-09 00:30 3.11 423 4530 (2013) 31 (1956) 323 43 71 109 123 183 282 326 451 1130
2020-08-08 23:30 3.12 427 3870 (1958) 33 (1964) 315 43 75 110 122 175 271 332 406 1030
2020-08-08 22:30 3.13 430 3870 (1958) 33 (1964) 315 43 75 110 122 175 271 332 406 1030
2020-08-08 21:30 3.15 438 3870 (1958) 33 (1964) 315 43 75 110 122 175 271 332 406 1030
2020-08-08 20:30 3.17 446 3870 (1958) 33 (1964) 315 43 75 110 122 175 271 332 406 1030
2020-08-08 19:30 3.18 450 3870 (1958) 33 (1964) 315 43 75 110 122 175 271 332 406 1030
2020-08-08 18:30 3.20 458 3870 (1958) 33 (1964) 315 43 75 110 122 175 271 332 406 1030
2020-08-08 17:30 3.22 466 3870 (1958) 33 (1964) 315 43 75 110 122 175 271 332 406 1030
2020-08-08 16:30 3.24 474 3870 (1958) 33 (1964) 315 43 75 110 122 175 271 332 406 1030
2020-08-08 15:30 3.26 482 3870 (1958) 33 (1964) 315 43 75 110 122 175 271 332 406 1030
2020-08-08 14:30 3.28 490 3870 (1958) 33 (1964) 315 43 75 110 122 175 271 332 406 1030
2020-08-08 13:30 3.29 495 3870 (1958) 33 (1964) 315 43 75 110 122 175 271 332 406 1030
2020-08-08 12:30 3.32 507 3870 (1958) 33 (1964) 315 43 75 110 122 175 271 332 406 1030
2020-08-08 11:30 3.34 516 3870 (1958) 33 (1964) 315 43 75 110 122 175 271 332 406 1030
2020-08-08 10:30 3.36 524 3870 (1958) 33 (1964) 315 43 75 110 122 175 271 332 406 1030
2020-08-08 09:30 3.39 537 3870 (1958) 33 (1964) 315 43 75 110 122 175 271 332 406 1030
2020-08-08 08:30 3.42 550 3870 (1958) 33 (1964) 315 43 75 110 122 175 271 332 406 1030
2020-08-08 07:30 3.46 568 3870 (1958) 33 (1964) 315 43 75 110 122 175 271 332 406 1030
2020-08-08 06:30 3.49 582 3870 (1958) 33 (1964) 315 43 75 110 122 175 271 332 406 1030
2020-08-08 05:30 3.51 591 3870 (1958) 33 (1964) 315 43 75 110 122 175 271 332 406 1030
2020-08-08 04:30 3.49 582 3870 (1958) 33 (1964) 315 43 75 110 122 175 271 332 406 1030
2020-08-08 03:30 3.43 555 3870 (1958) 33 (1964) 315 43 75 110 122 175 271 332 406 1030
2020-08-08 02:30 3.30 499 3870 (1958) 33 (1964) 315 43 75 110 122 175 271 332 406 1030
2020-08-08 01:30 3.13 430 3870 (1958) 33 (1964) 315 43 75 110 122 175 271 332 406 1030
2020-08-08 00:30 2.97 371 3870 (1958) 33 (1964) 315 43 75 110 122 175 271 332 406 1030

A total of 91 rows are displayed for years 1956 through 2019.